AZU2577 SBKP-SBPS
Flight info
| Callsign | AZU2577 |
|---|---|
| Flight time | 1h 24m |
| Altitude | 39000 |
| Route | KONVI UZ23 KIBAP DCT NITLU UZ16 OSUNO |
| Aircraft | A20N/M-SDE2E3FGHIJ1RWXY/LB1 |
Departure
| Time | 2026-04-18 10:31 |
|---|---|
| Airport | Viracopos International Airport (SBKP) |
Arrival
| Time | 2026-04-18 11:55 |
|---|---|
| Airport | Porto Seguro International Airport (SBPS) |
| Time | Latitude | Longitude | Altitude | Speed | Heading |
|---|---|---|---|---|---|
| 2026-04-18 10:04 | -23.00409 | -47.14865 | 2177 ft | 0 kts | 215° |
| 2026-04-18 10:17 | -23.00402 | -47.14859 | 2177 ft | 2 kts | 215° |
| 2026-04-18 10:17 | -23.00389 | -47.14850 | 2177 ft | 2 kts | 214° |
| 2026-04-18 10:17 | -23.00379 | -47.14838 | 2177 ft | 2 kts | 249° |
| 2026-04-18 10:18 | -23.00377 | -47.14822 | 2177 ft | 2 kts | 277° |
| 2026-04-18 10:18 | -23.00381 | -47.14807 | 2177 ft | 0 kts | 303° |
| 2026-04-18 10:18 | -23.00385 | -47.14802 | 2177 ft | 1 kts | 309° |
| 2026-04-18 10:18 | -23.00386 | -47.14800 | 2177 ft | 0 kts | 308° |
| 2026-04-18 10:26 | -23.00382 | -47.14806 | 2177 ft | 0 kts | 308° |
| 2026-04-18 10:26 | -23.00366 | -47.14827 | 2177 ft | 6 kts | 308° |
| 2026-04-18 10:27 | -23.00331 | -47.14877 | 2177 ft | 9 kts | 307° |
| 2026-04-18 10:27 | -23.00288 | -47.14938 | 2177 ft | 10 kts | 308° |
| 2026-04-18 10:27 | -23.00243 | -47.14999 | 2177 ft | 4 kts | 308° |
| 2026-04-18 10:27 | -23.00219 | -47.15025 | 2177 ft | 5 kts | 338° |
| 2026-04-18 10:28 | -23.00182 | -47.15011 | 2177 ft | 6 kts | 37° |
| 2026-04-18 10:28 | -23.00145 | -47.14977 | 2177 ft | 7 kts | 39° |
| 2026-04-18 10:28 | -23.00100 | -47.14940 | 2177 ft | 8 kts | 38° |
| 2026-04-18 10:28 | -23.00055 | -47.14902 | 2177 ft | 8 kts | 37° |
| 2026-04-18 10:29 | -23.00013 | -47.14867 | 2177 ft | 6 kts | 37° |
| 2026-04-18 10:29 | -22.99984 | -47.14827 | 2177 ft | 7 kts | 56° |
| 2026-04-18 10:29 | -22.99948 | -47.14783 | 2177 ft | 8 kts | 41° |
| 2026-04-18 10:29 | -22.99902 | -47.14737 | 2177 ft | 9 kts | 48° |
| 2026-04-18 10:30 | -22.99880 | -47.14668 | 2177 ft | 12 kts | 100° |
| 2026-04-18 10:30 | -23.00016 | -47.14460 | 2178 ft | 68 kts | 128° |
| 2026-04-18 10:30 | -23.00454 | -47.13851 | 2178 ft | 132 kts | 127° |
| 2026-04-18 10:30 | -23.01129 | -47.12907 | 2297 ft | 173 kts | 127° |
| 2026-04-18 10:31 | -23.01880 | -47.11854 | 2781 ft | 182 kts | 116° |
| 2026-04-18 10:31 | -23.02070 | -47.10484 | 3236 ft | 193 kts | 79° |
| 2026-04-18 10:31 | -23.01794 | -47.09014 | 3738 ft | 208 kts | 74° |
| 2026-04-18 10:31 | -23.01463 | -47.07431 | 4220 ft | 226 kts | 76° |
| 2026-04-18 10:32 | -23.01144 | -47.05656 | 4651 ft | 249 kts | 78° |
| 2026-04-18 10:32 | -23.00847 | -47.03739 | 5157 ft | 268 kts | 78° |
| 2026-04-18 10:32 | -23.00237 | -47.01815 | 5740 ft | 280 kts | 54° |
| 2026-04-18 10:32 | -22.98878 | -47.00332 | 6579 ft | 281 kts | 35° |
| 2026-04-18 10:33 | -22.97273 | -46.99062 | 7253 ft | 287 kts | 34° |
| 2026-04-18 10:33 | -22.95643 | -46.97784 | 7660 ft | 291 kts | 34° |
| 2026-04-18 10:33 | -22.94011 | -46.96484 | 7824 ft | 293 kts | 35° |
| 2026-04-18 10:33 | -22.92367 | -46.95154 | 7824 ft | 292 kts | 36° |
| 2026-04-18 10:34 | -22.90645 | -46.93744 | 7829 ft | 292 kts | 37° |
| 2026-04-18 10:34 | -22.88929 | -46.92199 | 7957 ft | 298 kts | 39° |
| 2026-04-18 10:34 | -22.87229 | -46.90633 | 8719 ft | 303 kts | 39° |
| 2026-04-18 10:34 | -22.85474 | -46.89008 | 9704 ft | 304 kts | 40° |
| 2026-04-18 10:35 | -22.83707 | -46.87370 | 10511 ft | 310 kts | 40° |
| 2026-04-18 10:35 | -22.81869 | -46.85666 | 11011 ft | 327 kts | 40° |
| 2026-04-18 10:35 | -22.80095 | -46.84021 | 11663 ft | 335 kts | 40° |
| 2026-04-18 10:35 | -22.78288 | -46.82346 | 12387 ft | 339 kts | 40° |
| 2026-04-18 10:36 | -22.76404 | -46.80441 | 13144 ft | 344 kts | 44° |
| 2026-04-18 10:36 | -22.74676 | -46.78558 | 13819 ft | 349 kts | 45° |
| 2026-04-18 10:36 | -22.72937 | -46.76646 | 14491 ft | 353 kts | 45° |
| 2026-04-18 10:36 | -22.71186 | -46.74723 | 15163 ft | 357 kts | 44° |
| 2026-04-18 10:37 | -22.69397 | -46.72761 | 15800 ft | 361 kts | 44° |
| 2026-04-18 10:37 | -22.67578 | -46.70772 | 16415 ft | 366 kts | 44° |
| 2026-04-18 10:37 | -22.65813 | -46.68736 | 17025 ft | 371 kts | 53° |
| 2026-04-18 10:37 | -22.64695 | -46.66133 | 17618 ft | 374 kts | 80° |
| 2026-04-18 10:38 | -22.64652 | -46.63264 | 18306 ft | 373 kts | 98° |
| 2026-04-18 10:38 | -22.64939 | -46.60519 | 18899 ft | 376 kts | 98° |
| 2026-04-18 10:38 | -22.65234 | -46.57658 | 19475 ft | 381 kts | 98° |
| 2026-04-18 10:38 | -22.65512 | -46.54715 | 20075 ft | 385 kts | 97° |
| 2026-04-18 10:39 | -22.65770 | -46.51774 | 20673 ft | 389 kts | 97° |
| 2026-04-18 10:39 | -22.66021 | -46.48787 | 21259 ft | 392 kts | 97° |
| 2026-04-18 10:39 | -22.66266 | -46.45780 | 21840 ft | 396 kts | 97° |
| 2026-04-18 10:39 | -22.66515 | -46.42676 | 22437 ft | 399 kts | 97° |
| 2026-04-18 10:40 | -22.66765 | -46.39555 | 23019 ft | 403 kts | 97° |
| 2026-04-18 10:40 | -22.67013 | -46.36437 | 23582 ft | 407 kts | 96° |
| 2026-04-18 10:40 | -22.67263 | -46.33296 | 24149 ft | 410 kts | 96° |
| 2026-04-18 10:40 | -22.67510 | -46.30152 | 24674 ft | 414 kts | 96° |
| 2026-04-18 10:41 | -22.67764 | -46.26907 | 25222 ft | 416 kts | 96° |
| 2026-04-18 10:41 | -22.68020 | -46.23638 | 25731 ft | 420 kts | 96° |
| 2026-04-18 10:41 | -22.68135 | -46.20277 | 26188 ft | 425 kts | 84° |
| 2026-04-18 10:41 | -22.67301 | -46.17232 | 26615 ft | 427 kts | 60° |
| 2026-04-18 10:42 | -22.65471 | -46.14675 | 27138 ft | 423 kts | 39° |
| 2026-04-18 10:42 | -22.63179 | -46.12659 | 27605 ft | 424 kts | 36° |
| 2026-04-18 10:42 | -22.60823 | -46.10659 | 27971 ft | 429 kts | 36° |
| 2026-04-18 10:42 | -22.58470 | -46.08643 | 28369 ft | 433 kts | 36° |
| 2026-04-18 10:43 | -22.56085 | -46.06573 | 28806 ft | 435 kts | 36° |
| 2026-04-18 10:43 | -22.53729 | -46.04512 | 29263 ft | 437 kts | 36° |
| 2026-04-18 10:43 | -22.51333 | -46.02407 | 29692 ft | 438 kts | 36° |
| 2026-04-18 10:43 | -22.48950 | -46.00309 | 30039 ft | 442 kts | 36° |
| 2026-04-18 10:44 | -22.46512 | -45.98162 | 30380 ft | 445 kts | 36° |
| 2026-04-18 10:44 | -22.44091 | -45.96028 | 30687 ft | 448 kts | 36° |
| 2026-04-18 10:44 | -22.41614 | -45.93847 | 30997 ft | 451 kts | 36° |
| 2026-04-18 10:44 | -22.39110 | -45.91643 | 31310 ft | 454 kts | 36° |
| 2026-04-18 10:45 | -22.36608 | -45.89442 | 31592 ft | 458 kts | 36° |
| 2026-04-18 10:45 | -22.34057 | -45.87199 | 31877 ft | 461 kts | 36° |
| 2026-04-18 10:45 | -22.31555 | -45.84999 | 32177 ft | 463 kts | 36° |
| 2026-04-18 10:45 | -22.29014 | -45.82767 | 32540 ft | 463 kts | 36° |
| 2026-04-18 10:46 | -22.26441 | -45.80517 | 32918 ft | 463 kts | 35° |
| 2026-04-18 10:46 | -22.23925 | -45.78335 | 33266 ft | 463 kts | 35° |
| 2026-04-18 10:46 | -22.21364 | -45.76122 | 33604 ft | 464 kts | 34° |
| 2026-04-18 10:46 | -22.18802 | -45.73912 | 33962 ft | 464 kts | 34° |
| 2026-04-18 10:47 | -22.16234 | -45.71697 | 34321 ft | 464 kts | 34° |
| 2026-04-18 10:47 | -22.13675 | -45.69487 | 34717 ft | 463 kts | 34° |
| 2026-04-18 10:47 | -22.11125 | -45.67287 | 35050 ft | 463 kts | 34° |
| 2026-04-18 10:47 | -22.08557 | -45.65072 | 35375 ft | 463 kts | 34° |
| 2026-04-18 10:48 | -22.05987 | -45.62859 | 35665 ft | 463 kts | 34° |
| 2026-04-18 10:48 | -22.03462 | -45.60685 | 35902 ft | 464 kts | 34° |
| 2026-04-18 10:48 | -22.00887 | -45.58468 | 36112 ft | 466 kts | 33° |
| 2026-04-18 10:48 | -21.98323 | -45.56263 | 36305 ft | 468 kts | 33° |
| 2026-04-18 10:49 | -21.95744 | -45.54044 | 36481 ft | 470 kts | 33° |
| 2026-04-18 10:49 | -21.93168 | -45.51830 | 36695 ft | 471 kts | 33° |
| 2026-04-18 10:49 | -21.90572 | -45.49598 | 36896 ft | 473 kts | 33° |
| 2026-04-18 10:49 | -21.87965 | -45.47361 | 37045 ft | 475 kts | 33° |
| 2026-04-18 10:50 | -21.85325 | -45.45109 | 37046 ft | 476 kts | 33° |
| 2026-04-18 10:50 | -21.80042 | -45.40595 | 37050 ft | 478 kts | 33° |
| 2026-04-18 10:51 | -21.74795 | -45.36099 | 37043 ft | 478 kts | 33° |
| 2026-04-18 10:51 | -21.69520 | -45.31561 | 37041 ft | 478 kts | 33° |
| 2026-04-18 10:52 | -21.64256 | -45.27031 | 37039 ft | 478 kts | 33° |
| 2026-04-18 10:52 | -21.58956 | -45.22492 | 37036 ft | 478 kts | 32° |
| 2026-04-18 10:53 | -21.53638 | -45.17951 | 37032 ft | 479 kts | 32° |
| 2026-04-18 10:53 | -21.48295 | -45.13393 | 37035 ft | 479 kts | 32° |
| 2026-04-18 10:54 | -21.42946 | -45.08834 | 37027 ft | 479 kts | 32° |
| 2026-04-18 10:54 | -21.37647 | -45.04323 | 37031 ft | 480 kts | 32° |
| 2026-04-18 10:55 | -21.32324 | -44.99797 | 37026 ft | 481 kts | 32° |
| 2026-04-18 10:55 | -21.26952 | -44.95235 | 37031 ft | 482 kts | 32° |
| 2026-04-18 10:56 | -21.21594 | -44.90686 | 37035 ft | 482 kts | 32° |
| 2026-04-18 10:56 | -21.16188 | -44.86099 | 37032 ft | 482 kts | 32° |
| 2026-04-18 10:57 | -21.10766 | -44.81504 | 37036 ft | 483 kts | 32° |
| 2026-04-18 10:57 | -21.05401 | -44.76973 | 37033 ft | 481 kts | 30° |
| 2026-04-18 10:58 | -20.99851 | -44.72674 | 37036 ft | 479 kts | 28° |
| 2026-04-18 10:58 | -20.94314 | -44.68469 | 37040 ft | 482 kts | 28° |
| 2026-04-18 10:59 | -20.88753 | -44.64230 | 37043 ft | 483 kts | 28° |
| 2026-04-18 10:59 | -20.83259 | -44.59784 | 37059 ft | 487 kts | 34° |
| 2026-04-18 11:00 | -20.78466 | -44.54569 | 37074 ft | 484 kts | 45° |
| 2026-04-18 11:00 | -20.74503 | -44.48592 | 37081 ft | 489 kts | 55° |
| 2026-04-18 11:01 | -20.70964 | -44.42176 | 37085 ft | 491 kts | 56° |
| 2026-04-18 11:01 | -20.67442 | -44.35798 | 37077 ft | 492 kts | 55° |
| 2026-04-18 11:02 | -20.62109 | -44.26228 | 37063 ft | 492 kts | 54° |
| 2026-04-18 11:02 | -20.58524 | -44.19842 | 37063 ft | 492 kts | 54° |
| 2026-04-18 11:03 | -20.54916 | -44.13434 | 37060 ft | 492 kts | 54° |
| 2026-04-18 11:03 | -20.51354 | -44.07105 | 37057 ft | 492 kts | 55° |
| 2026-04-18 11:04 | -20.47944 | -44.00618 | 37063 ft | 495 kts | 57° |
| 2026-04-18 11:04 | -20.44554 | -43.94015 | 37057 ft | 495 kts | 57° |
| 2026-04-18 11:05 | -20.41085 | -43.87284 | 37061 ft | 494 kts | 57° |
| 2026-04-18 11:05 | -20.37739 | -43.80828 | 37058 ft | 496 kts | 57° |
| 2026-04-18 11:06 | -20.34329 | -43.74249 | 37063 ft | 496 kts | 57° |
| 2026-04-18 11:06 | -20.30933 | -43.67708 | 37052 ft | 495 kts | 57° |
| 2026-04-18 11:07 | -20.27421 | -43.60957 | 37043 ft | 497 kts | 57° |
| 2026-04-18 11:07 | -20.23862 | -43.54118 | 37049 ft | 498 kts | 57° |
| 2026-04-18 11:08 | -20.20234 | -43.47153 | 37042 ft | 498 kts | 57° |
| 2026-04-18 11:08 | -20.16601 | -43.40190 | 37036 ft | 499 kts | 57° |
| 2026-04-18 11:09 | -20.12983 | -43.33266 | 37021 ft | 498 kts | 57° |
| 2026-04-18 11:09 | -20.09428 | -43.26186 | 37022 ft | 500 kts | 59° |
| 2026-04-18 11:10 | -20.06066 | -43.19135 | 37019 ft | 500 kts | 59° |
| 2026-04-18 11:10 | -20.02674 | -43.12069 | 37022 ft | 501 kts | 59° |
| 2026-04-18 11:11 | -19.99223 | -43.04906 | 37023 ft | 501 kts | 59° |
| 2026-04-18 11:11 | -19.95455 | -42.97836 | 37028 ft | 497 kts | 51° |
| 2026-04-18 11:12 | -19.90845 | -42.91530 | 37019 ft | 490 kts | 43° |
| 2026-04-18 11:12 | -19.85933 | -42.85599 | 37007 ft | 489 kts | 43° |
| 2026-04-18 11:13 | -19.81139 | -42.79753 | 37008 ft | 488 kts | 43° |
| 2026-04-18 11:13 | -19.76341 | -42.73851 | 37018 ft | 489 kts | 44° |
| 2026-04-18 11:14 | -19.71515 | -42.67899 | 37020 ft | 490 kts | 43° |
| 2026-04-18 11:14 | -19.66798 | -42.62100 | 37012 ft | 489 kts | 44° |
| 2026-04-18 11:15 | -19.62163 | -42.56425 | 37006 ft | 488 kts | 43° |
| 2026-04-18 11:15 | -19.57482 | -42.50695 | 36991 ft | 489 kts | 44° |
| 2026-04-18 11:16 | -19.52752 | -42.44900 | 36976 ft | 488 kts | 44° |
| 2026-04-18 11:16 | -19.48016 | -42.39095 | 36976 ft | 488 kts | 44° |
| 2026-04-18 11:17 | -19.43345 | -42.33373 | 36979 ft | 488 kts | 43° |
| 2026-04-18 11:17 | -19.38629 | -42.27572 | 36990 ft | 488 kts | 44° |
| 2026-04-18 11:18 | -19.33890 | -42.21773 | 36990 ft | 487 kts | 44° |
| 2026-04-18 11:18 | -19.29174 | -42.16018 | 36985 ft | 487 kts | 43° |
| 2026-04-18 11:19 | -19.24419 | -42.10220 | 36983 ft | 487 kts | 44° |
| 2026-04-18 11:19 | -19.19682 | -42.04446 | 36983 ft | 487 kts | 43° |
| 2026-04-18 11:20 | -19.14889 | -41.98610 | 36980 ft | 488 kts | 44° |
| 2026-04-18 11:20 | -19.10089 | -41.92786 | 36974 ft | 487 kts | 44° |
| 2026-04-18 11:21 | -19.05277 | -41.86955 | 36974 ft | 487 kts | 43° |
| 2026-04-18 11:21 | -19.00555 | -41.81224 | 36966 ft | 486 kts | 44° |
| 2026-04-18 11:22 | -18.95782 | -41.75437 | 36961 ft | 487 kts | 44° |
| 2026-04-18 11:22 | -18.91051 | -41.69700 | 36960 ft | 486 kts | 44° |
| 2026-04-18 11:23 | -18.86302 | -41.63982 | 36958 ft | 485 kts | 44° |
| 2026-04-18 11:23 | -18.81508 | -41.58210 | 36956 ft | 484 kts | 44° |
| 2026-04-18 11:24 | -18.76779 | -41.52501 | 36955 ft | 483 kts | 44° |
| 2026-04-18 11:24 | -18.72091 | -41.46845 | 36957 ft | 484 kts | 44° |
| 2026-04-18 11:25 | -18.67374 | -41.41164 | 36971 ft | 483 kts | 44° |
| 2026-04-18 11:25 | -18.62574 | -41.35390 | 36982 ft | 482 kts | 44° |
| 2026-04-18 11:26 | -18.57947 | -41.29794 | 36988 ft | 482 kts | 44° |
| 2026-04-18 11:26 | -18.53296 | -41.24184 | 36994 ft | 482 kts | 44° |
| 2026-04-18 11:27 | -18.48674 | -41.18630 | 36997 ft | 481 kts | 44° |
| 2026-04-18 11:27 | -18.43991 | -41.13011 | 36994 ft | 480 kts | 44° |
| 2026-04-18 11:28 | -18.39335 | -41.07435 | 36992 ft | 480 kts | 44° |
| 2026-04-18 11:28 | -18.34654 | -41.01833 | 36992 ft | 480 kts | 44° |
| 2026-04-18 11:29 | -18.29937 | -40.96193 | 36988 ft | 480 kts | 44° |
| 2026-04-18 11:29 | -18.25253 | -40.90594 | 36982 ft | 482 kts | 44° |
| 2026-04-18 11:30 | -18.20497 | -40.84904 | 36971 ft | 481 kts | 44° |
| 2026-04-18 11:30 | -18.15728 | -40.79210 | 36963 ft | 481 kts | 44° |
| 2026-04-18 11:31 | -18.10975 | -40.73543 | 36516 ft | 485 kts | 44° |
| 2026-04-18 11:31 | -18.08416 | -40.70499 | 35870 ft | 492 kts | 44° |
| 2026-04-18 11:31 | -18.05834 | -40.67424 | 35236 ft | 499 kts | 44° |
| 2026-04-18 11:32 | -18.03260 | -40.64364 | 34595 ft | 504 kts | 44° |
| 2026-04-18 11:32 | -18.00642 | -40.61247 | 33962 ft | 505 kts | 45° |
| 2026-04-18 11:32 | -17.98031 | -40.58142 | 33350 ft | 506 kts | 44° |
| 2026-04-18 11:32 | -17.95417 | -40.55032 | 32699 ft | 508 kts | 44° |
| 2026-04-18 11:33 | -17.92812 | -40.51937 | 32061 ft | 505 kts | 44° |
| 2026-04-18 11:33 | -17.90214 | -40.48851 | 31460 ft | 499 kts | 44° |
| 2026-04-18 11:33 | -17.87678 | -40.45849 | 30865 ft | 493 kts | 44° |
| 2026-04-18 11:33 | -17.85221 | -40.42954 | 30232 ft | 490 kts | 44° |
| 2026-04-18 11:34 | -17.82787 | -40.40081 | 29608 ft | 486 kts | 45° |
| 2026-04-18 11:34 | -17.80379 | -40.37231 | 28967 ft | 482 kts | 45° |
| 2026-04-18 11:34 | -17.77987 | -40.34396 | 28315 ft | 479 kts | 44° |
| 2026-04-18 11:34 | -17.75620 | -40.31587 | 27643 ft | 475 kts | 45° |
| 2026-04-18 11:35 | -17.73265 | -40.28788 | 27195 ft | 467 kts | 45° |
| 2026-04-18 11:35 | -17.70936 | -40.26027 | 26704 ft | 459 kts | 45° |
| 2026-04-18 11:35 | -17.68629 | -40.23296 | 26201 ft | 453 kts | 45° |
| 2026-04-18 11:35 | -17.66406 | -40.20669 | 25741 ft | 446 kts | 45° |
| 2026-04-18 11:36 | -17.64296 | -40.18180 | 25310 ft | 440 kts | 46° |
| 2026-04-18 11:36 | -17.62217 | -40.15728 | 24865 ft | 435 kts | 46° |
| 2026-04-18 11:36 | -17.60057 | -40.13181 | 24383 ft | 430 kts | 46° |
| 2026-04-18 11:36 | -17.58020 | -40.10780 | 23929 ft | 426 kts | 46° |
| 2026-04-18 11:37 | -17.55991 | -40.08390 | 23475 ft | 422 kts | 46° |
| 2026-04-18 11:37 | -17.53970 | -40.06009 | 23008 ft | 419 kts | 46° |
| 2026-04-18 11:37 | -17.51953 | -40.03636 | 22562 ft | 415 kts | 46° |
| 2026-04-18 11:37 | -17.50002 | -40.01339 | 22136 ft | 411 kts | 46° |
| 2026-04-18 11:38 | -17.48027 | -39.99014 | 21687 ft | 407 kts | 46° |
| 2026-04-18 11:38 | -17.46059 | -39.96698 | 21230 ft | 404 kts | 46° |
| 2026-04-18 11:38 | -17.44042 | -39.94521 | 20764 ft | 399 kts | 39° |
| 2026-04-18 11:38 | -17.41707 | -39.92665 | 20280 ft | 394 kts | 30° |
| 2026-04-18 11:39 | -17.39187 | -39.91182 | 19806 ft | 390 kts | 25° |
| 2026-04-18 11:39 | -17.36622 | -39.89806 | 19325 ft | 387 kts | 25° |
| 2026-04-18 11:39 | -17.34085 | -39.88457 | 18845 ft | 385 kts | 25° |
| 2026-04-18 11:39 | -17.31552 | -39.87106 | 18371 ft | 382 kts | 25° |
| 2026-04-18 11:40 | -17.29038 | -39.85756 | 17886 ft | 380 kts | 25° |
| 2026-04-18 11:40 | -17.26605 | -39.84447 | 17434 ft | 377 kts | 25° |
| 2026-04-18 11:40 | -17.24109 | -39.83099 | 16973 ft | 374 kts | 25° |
| 2026-04-18 11:40 | -17.21629 | -39.81760 | 16507 ft | 372 kts | 25° |
| 2026-04-18 11:41 | -17.19213 | -39.80454 | 16043 ft | 370 kts | 25° |
| 2026-04-18 11:41 | -17.16797 | -39.79150 | 15585 ft | 367 kts | 25° |
| 2026-04-18 11:41 | -17.14384 | -39.77848 | 15124 ft | 365 kts | 26° |
| 2026-04-18 11:41 | -17.12045 | -39.76586 | 14684 ft | 362 kts | 26° |
| 2026-04-18 11:42 | -17.09604 | -39.75269 | 14231 ft | 359 kts | 26° |
| 2026-04-18 11:42 | -17.07221 | -39.73983 | 13776 ft | 356 kts | 26° |
| 2026-04-18 11:42 | -17.04879 | -39.72719 | 13310 ft | 354 kts | 26° |
| 2026-04-18 11:42 | -17.02571 | -39.71456 | 12863 ft | 352 kts | 28° |
| 2026-04-18 11:43 | -17.00354 | -39.70097 | 12423 ft | 349 kts | 30° |
| 2026-04-18 11:43 | -16.98149 | -39.68708 | 11991 ft | 346 kts | 30° |
| 2026-04-18 11:43 | -16.95961 | -39.67326 | 11560 ft | 343 kts | 30° |
| 2026-04-18 11:43 | -16.93812 | -39.65972 | 11128 ft | 341 kts | 30° |
| 2026-04-18 11:44 | -16.91689 | -39.64638 | 10707 ft | 338 kts | 30° |
| 2026-04-18 11:44 | -16.89564 | -39.63303 | 10276 ft | 335 kts | 30° |
| 2026-04-18 11:44 | -16.87434 | -39.61972 | 10085 ft | 322 kts | 29° |
| 2026-04-18 11:44 | -16.85366 | -39.60680 | 10009 ft | 306 kts | 30° |
| 2026-04-18 11:45 | -16.83421 | -39.59464 | 9832 ft | 296 kts | 30° |
| 2026-04-18 11:45 | -16.81509 | -39.58268 | 9458 ft | 293 kts | 30° |
| 2026-04-18 11:45 | -16.79637 | -39.57097 | 9106 ft | 291 kts | 29° |
| 2026-04-18 11:45 | -16.77816 | -39.55956 | 8756 ft | 288 kts | 30° |
| 2026-04-18 11:46 | -16.76011 | -39.54826 | 8417 ft | 285 kts | 30° |
| 2026-04-18 11:46 | -16.74245 | -39.53699 | 8085 ft | 283 kts | 32° |
| 2026-04-18 11:46 | -16.72537 | -39.52430 | 7749 ft | 281 kts | 36° |
| 2026-04-18 11:46 | -16.70923 | -39.51157 | 7418 ft | 279 kts | 36° |
| 2026-04-18 11:47 | -16.69268 | -39.49842 | 7090 ft | 277 kts | 36° |
| 2026-04-18 11:47 | -16.67618 | -39.48532 | 6753 ft | 275 kts | 36° |
| 2026-04-18 11:47 | -16.66007 | -39.47254 | 6420 ft | 273 kts | 36° |
| 2026-04-18 11:47 | -16.64404 | -39.45986 | 6097 ft | 272 kts | 36° |
| 2026-04-18 11:48 | -16.62792 | -39.44710 | 5779 ft | 270 kts | 36° |
| 2026-04-18 11:48 | -16.61197 | -39.43449 | 5470 ft | 268 kts | 36° |
| 2026-04-18 11:48 | -16.59633 | -39.42210 | 5159 ft | 265 kts | 37° |
| 2026-04-18 11:48 | -16.58064 | -39.40970 | 4856 ft | 263 kts | 37° |
| 2026-04-18 11:49 | -16.56514 | -39.39746 | 4556 ft | 261 kts | 37° |
| 2026-04-18 11:49 | -16.54975 | -39.38531 | 4348 ft | 253 kts | 37° |
| 2026-04-18 11:49 | -16.53552 | -39.37405 | 4322 ft | 238 kts | 37° |
| 2026-04-18 11:49 | -16.52179 | -39.36318 | 4289 ft | 223 kts | 38° |
| 2026-04-18 11:50 | -16.51112 | -39.35035 | 4203 ft | 215 kts | 64° |
| 2026-04-18 11:50 | -16.50607 | -39.33467 | 3959 ft | 214 kts | 74° |
| 2026-04-18 11:50 | -16.50214 | -39.31859 | 3713 ft | 213 kts | 75° |
| 2026-04-18 11:50 | -16.49840 | -39.30285 | 3474 ft | 211 kts | 75° |
| 2026-04-18 11:51 | -16.49457 | -39.28719 | 3239 ft | 209 kts | 74° |
| 2026-04-18 11:51 | -16.49054 | -39.27171 | 3007 ft | 207 kts | 73° |
| 2026-04-18 11:51 | -16.48640 | -39.25635 | 2783 ft | 204 kts | 73° |
| 2026-04-18 11:51 | -16.48239 | -39.24172 | 2741 ft | 200 kts | 73° |
| 2026-04-18 11:52 | -16.47844 | -39.22726 | 2772 ft | 185 kts | 73° |
| 2026-04-18 11:52 | -16.47482 | -39.21399 | 2594 ft | 176 kts | 73° |
| 2026-04-18 11:52 | -16.47134 | -39.20123 | 2341 ft | 172 kts | 73° |
| 2026-04-18 11:52 | -16.46791 | -39.18860 | 2090 ft | 165 kts | 73° |
| 2026-04-18 11:53 | -16.46471 | -39.17680 | 1874 ft | 151 kts | 73° |
| 2026-04-18 11:53 | -16.46173 | -39.16579 | 1646 ft | 142 kts | 73° |
| 2026-04-18 11:53 | -16.45890 | -39.15534 | 1460 ft | 139 kts | 73° |
| 2026-04-18 11:53 | -16.45612 | -39.14496 | 1256 ft | 139 kts | 73° |
| 2026-04-18 11:54 | -16.45330 | -39.13464 | 1076 ft | 139 kts | 73° |
| 2026-04-18 11:54 | -16.45043 | -39.12436 | 898 ft | 139 kts | 73° |
| 2026-04-18 11:54 | -16.44764 | -39.11418 | 726 ft | 139 kts | 74° |
| 2026-04-18 11:54 | -16.44493 | -39.10421 | 517 ft | 140 kts | 73° |
| 2026-04-18 11:55 | -16.44221 | -39.09427 | 288 ft | 140 kts | 74° |
| 2026-04-18 11:55 | -16.43953 | -39.08445 | 162 ft | 127 kts | 74° |
| 2026-04-18 11:55 | -16.43777 | -39.07798 | 155 ft | 72 kts | 74° |
| 2026-04-18 11:55 | -16.43671 | -39.07404 | 149 ft | 46 kts | 74° |
| 2026-04-18 11:56 | -16.43651 | -39.07230 | 146 ft | 10 kts | 110° |
| 2026-04-18 11:56 | -16.43621 | -39.07214 | 145 ft | 5 kts | 278° |
| 2026-04-18 11:56 | -16.43632 | -39.07259 | 146 ft | 6 kts | 253° |
| 2026-04-18 11:56 | -16.43647 | -39.07313 | 147 ft | 8 kts | 254° |
| 2026-04-18 11:57 | -16.43670 | -39.07395 | 149 ft | 16 kts | 255° |
| 2026-04-18 11:57 | -16.43712 | -39.07552 | 151 ft | 26 kts | 255° |
| 2026-04-18 11:57 | -16.43769 | -39.07764 | 154 ft | 29 kts | 254° |
| 2026-04-18 11:57 | -16.43823 | -39.07965 | 157 ft | 26 kts | 255° |
| 2026-04-18 11:58 | -16.43875 | -39.08131 | 159 ft | 16 kts | 223° |
| 2026-04-18 11:58 | -16.43966 | -39.08126 | 157 ft | 12 kts | 162° |
| 2026-04-18 11:58 | -16.44020 | -39.08108 | 156 ft | 7 kts | 162° |
| 2026-04-18 11:58 | -16.44058 | -39.08097 | 154 ft | 3 kts | 165° |
| 2026-04-18 11:59 | -16.44069 | -39.08094 | 153 ft | 1 kts | 165° |